createdAt,value
2018-07-23T00:00:54.594Z,90.97
2018-07-23T00:02:01.010Z,91.53
2018-07-23T00:03:07.467Z,91.38
2018-07-23T00:04:13.850Z,91.59
2018-07-23T00:05:20.181Z,91.44
2018-07-23T00:06:26.492Z,91.55
2018-07-23T00:07:32.772Z,91.75
2018-07-23T00:08:38.875Z,92.05
2018-07-23T00:09:45.179Z,92.16
2018-07-23T00:10:51.609Z,92.29
2018-07-23T00:11:57.736Z,91.82
2018-07-23T00:13:03.804Z,92.73
2018-07-23T00:14:10.241Z,92.51
2018-07-23T00:15:16.561Z,92.42
2018-07-23T00:16:22.888Z,92.83
2018-07-23T00:17:29.203Z,92.65
2018-07-23T00:18:35.498Z,92.97
2018-07-23T00:19:41.657Z,92.94
2018-07-23T00:20:48.109Z,93.03
2018-07-23T00:21:54.555Z,93.09
2018-07-23T00:23:01.075Z,92.94
2018-07-23T00:24:07.378Z,93.12
2018-07-23T00:25:14.165Z,93.03
2018-07-23T00:26:20.207Z,92.90
2018-07-23T00:27:26.690Z,92.93
2018-07-23T00:28:33.351Z,93.32
2018-07-23T00:29:39.643Z,93.14
2018-07-23T00:30:45.974Z,92.96
2018-07-23T00:31:52.335Z,93.30
2018-07-23T00:32:58.905Z,92.86
2018-07-23T00:34:05.081Z,92.85
2018-07-23T00:35:11.403Z,92.40
2018-07-23T00:36:17.844Z,92.38
2018-07-23T00:37:24.064Z,92.38
2018-07-23T00:38:30.434Z,92.50
2018-07-23T00:39:36.746Z,92.07
2018-07-23T00:40:44.345Z,92.16
2018-07-23T00:41:51.651Z,92.13
2018-07-23T00:42:57.940Z,91.23
2018-07-23T00:44:04.360Z,89.80
2018-07-23T00:45:10.587Z,89.38
2018-07-23T00:46:17.088Z,89.62
2018-07-23T00:47:23.524Z,90.20
2018-07-23T00:48:29.902Z,90.49
2018-07-23T00:49:35.808Z,90.20
2018-07-23T00:50:42.185Z,89.50
2018-07-23T00:51:48.568Z,89.03
2018-07-23T00:52:54.620Z,89.30
2018-07-23T00:54:01.068Z,89.91
2018-07-23T00:55:07.501Z,89.87
2018-07-23T00:56:14.601Z,90.02
2018-07-23T00:57:21.668Z,89.87
2018-07-23T00:58:27.980Z,90.28
2018-07-23T00:59:34.468Z,90.34
2018-07-23T01:00:40.822Z,90.46
2018-07-23T01:01:45.769Z,90.00
2018-07-23T01:02:52.160Z,89.95
2018-07-23T01:03:58.589Z,89.84
2018-07-23T01:05:04.889Z,90.01
2018-07-23T01:06:11.344Z,90.05
2018-07-23T01:07:17.536Z,89.87
2018-07-23T01:08:23.960Z,89.17
2018-07-23T01:09:30.480Z,88.82
2018-07-23T01:10:36.769Z,88.68
2018-07-23T01:11:43.106Z,89.29
2018-07-23T01:12:50.313Z,88.89
2018-07-23T01:13:56.613Z,88.46
2018-07-23T01:15:02.748Z,88.28
2018-07-23T01:16:09.072Z,88.01
2018-07-23T01:17:15.266Z,87.86
2018-07-23T01:18:22.056Z,87.81
2018-07-23T01:19:28.503Z,87.33
2018-07-23T01:20:34.905Z,87.13
2018-07-23T01:21:41.352Z,87.45
2018-07-23T01:22:47.657Z,87.31
2018-07-23T01:23:53.938Z,86.76
2018-07-23T01:25:00.283Z,86.93
2018-07-23T01:26:07.412Z,87.69
2018-07-23T01:27:13.737Z,89.09
2018-07-23T01:28:20.314Z,89.31
2018-07-23T01:29:26.727Z,88.90
2018-07-23T01:30:33.034Z,88.88
2018-07-23T01:31:39.358Z,88.47
2018-07-23T01:32:45.752Z,88.39
2018-07-23T01:33:52.087Z,88.70
2018-07-23T01:34:58.445Z,89.09
2018-07-23T01:36:09.870Z,89.10
2018-07-23T01:37:16.272Z,89.45
2018-07-23T01:38:22.646Z,90.77
2018-07-23T01:39:28.854Z,90.64
2018-07-23T01:40:35.207Z,90.54
2018-07-23T01:41:41.597Z,90.43
2018-07-23T01:42:47.846Z,91.09
2018-07-23T01:43:54.216Z,91.25
2018-07-23T01:45:00.524Z,90.82
2018-07-23T01:46:06.831Z,91.09
2018-07-23T01:47:12.643Z,91.06
2018-07-23T01:48:19.381Z,91.04
2018-07-23T01:49:25.780Z,91.11
2018-07-23T01:50:32.060Z,92.24
2018-07-23T01:51:38.485Z,92.98
2018-07-23T01:52:44.868Z,92.94
2018-07-23T01:53:51.219Z,92.77
2018-07-23T01:54:57.686Z,93.61
2018-07-23T01:56:04.230Z,93.10
2018-07-23T01:57:10.656Z,92.50
2018-07-23T01:58:17.130Z,92.55
2018-07-23T01:59:23.571Z,92.60
2018-07-23T02:00:30.010Z,92.46
2018-07-23T02:01:36.352Z,92.25
2018-07-23T02:02:42.590Z,92.86
2018-07-23T02:03:49.931Z,92.94
2018-07-23T02:04:57.899Z,92.86
2018-07-23T02:06:03.947Z,93.56
2018-07-23T02:07:10.385Z,93.19
2018-07-23T02:09:25.676Z,93.87
2018-07-23T02:10:32.044Z,94.35
2018-07-23T02:11:39.040Z,93.62
2018-07-23T02:12:45.506Z,94.12
2018-07-23T02:13:51.804Z,94.18
2018-07-23T02:14:58.263Z,94.02
2018-07-23T02:16:04.059Z,94.22
2018-07-23T02:17:10.297Z,94.24
2018-07-23T02:18:16.805Z,94.53
2018-07-23T02:19:24.320Z,94.18
2018-07-23T02:20:31.341Z,95.45
2018-07-23T02:21:37.316Z,95.20
2018-07-23T02:22:43.756Z,95.52
2018-07-23T02:23:50.044Z,95.37
2018-07-23T02:24:56.478Z,95.07
2018-07-23T02:26:02.774Z,94.85
2018-07-23T02:27:09.105Z,94.67
2018-07-23T02:28:15.543Z,94.53
2018-07-23T02:29:21.909Z,94.75
2018-07-23T02:30:28.040Z,94.46
2018-07-23T02:31:34.362Z,94.79
2018-07-23T02:32:40.770Z,95.02
2018-07-23T02:33:46.973Z,94.58
2018-07-23T02:34:52.941Z,94.69
2018-07-23T02:36:00.215Z,94.65
2018-07-23T02:37:06.627Z,94.45
2018-07-23T02:38:13.736Z,95.15
2018-07-23T02:39:20.157Z,95.13
2018-07-23T02:40:26.561Z,95.13
2018-07-23T02:41:32.887Z,95.04
2018-07-23T02:42:39.324Z,94.62
2018-07-23T02:43:45.702Z,94.61
2018-07-23T02:44:52.123Z,94.20
2018-07-23T02:45:58.554Z,94.44
2018-07-23T02:47:04.951Z,94.81
2018-07-23T02:48:14.469Z,95.09
2018-07-23T02:49:20.902Z,95.28
2018-07-23T02:50:27.327Z,95.78
2018-07-23T02:51:34.249Z,95.73
2018-07-23T02:52:40.603Z,95.26
2018-07-23T02:53:46.960Z,95.29
2018-07-23T02:54:53.316Z,95.08
2018-07-23T02:55:59.636Z,94.95
2018-07-23T02:57:06.002Z,95.69
2018-07-23T02:58:12.416Z,96.54
2018-07-23T02:59:18.774Z,96.25
2018-07-23T03:00:25.228Z,95.86
2018-07-23T03:01:31.609Z,95.38
2018-07-23T03:02:37.925Z,95.01
2018-07-23T03:03:44.891Z,94.97
2018-07-23T03:04:51.389Z,94.83
2018-07-23T03:05:57.798Z,94.97
2018-07-23T03:07:04.075Z,94.43
2018-07-23T03:08:10.455Z,94.58
2018-07-23T03:09:17.352Z,94.48
2018-07-23T03:10:23.769Z,93.91
2018-07-23T03:11:30.062Z,93.95
2018-07-23T03:12:36.395Z,94.11
2018-07-23T03:13:42.810Z,94.52
2018-07-23T03:14:49.093Z,94.39
2018-07-23T03:15:55.656Z,95.07
2018-07-23T03:17:02.121Z,95.03
2018-07-23T03:18:07.980Z,94.63
2018-07-23T03:19:14.515Z,95.36
2018-07-23T03:20:20.856Z,95.64
2018-07-23T03:21:27.176Z,95.36
2018-07-23T03:22:33.569Z,95.49
2018-07-23T03:23:40.037Z,94.51
2018-07-23T03:24:46.079Z,94.47
2018-07-23T03:25:52.137Z,94.61
2018-07-23T03:26:59.536Z,94.82
2018-07-23T03:28:06.389Z,94.30
2018-07-23T03:29:12.716Z,94.44
2018-07-23T03:30:19.024Z,94.61
2018-07-23T03:31:25.316Z,94.74
2018-07-23T03:32:31.442Z,95.84
2018-07-23T03:33:38.225Z,95.67
2018-07-23T03:34:44.662Z,95.77
2018-07-23T03:35:51.083Z,95.74
2018-07-23T03:36:57.388Z,96.03
2018-07-23T03:38:03.613Z,95.79
2018-07-23T03:39:09.930Z,95.44
2018-07-23T03:40:16.038Z,95.47
2018-07-23T03:41:22.284Z,95.56
2018-07-23T03:42:28.945Z,95.59
2018-07-23T03:43:36.012Z,95.58
2018-07-23T03:44:43.095Z,96.25
2018-07-23T03:45:49.497Z,96.60
2018-07-23T03:46:55.884Z,96.00
2018-07-23T03:48:02.411Z,95.93
2018-07-23T03:49:08.966Z,95.60
2018-07-23T03:50:15.285Z,95.78
2018-07-23T03:51:21.681Z,95.71
2018-07-23T03:52:28.109Z,95.56
2018-07-23T03:53:34.468Z,95.93
2018-07-23T03:54:40.835Z,95.76
2018-07-23T03:55:47.275Z,95.76
2018-07-23T03:56:53.320Z,95.56
2018-07-23T03:58:00.393Z,95.34
2018-07-23T03:59:06.211Z,95.21
2018-07-23T04:00:12.254Z,95.24
2018-07-23T04:01:18.748Z,95.54
2018-07-23T04:02:25.052Z,95.39
2018-07-23T04:03:31.966Z,95.41
2018-07-23T04:04:38.565Z,95.09
2018-07-23T04:05:44.517Z,94.86
2018-07-23T04:06:50.557Z,95.22
2018-07-23T04:07:56.888Z,95.50
2018-07-23T04:09:03.804Z,95.21
2018-07-23T04:10:10.353Z,95.45
2018-07-23T04:11:16.806Z,96.45
2018-07-23T04:12:23.393Z,95.80
2018-07-23T04:13:29.801Z,95.63
2018-07-23T04:14:36.129Z,95.60
2018-07-23T04:15:42.120Z,95.14
2018-07-23T04:16:48.426Z,95.19
2018-07-23T04:17:54.738Z,95.08
2018-07-23T04:19:01.434Z,94.70
2018-07-23T04:20:07.836Z,93.75
2018-07-23T04:21:14.279Z,93.66
2018-07-23T04:22:20.908Z,93.52
2018-07-23T04:23:27.229Z,93.69
2018-07-23T04:24:33.535Z,93.37
2018-07-23T04:25:40.755Z,93.73
2018-07-23T04:26:47.159Z,95.23
2018-07-23T04:27:53.600Z,95.80
2018-07-23T04:28:59.663Z,95.88
2018-07-23T04:30:05.726Z,95.18
2018-07-23T04:31:12.101Z,94.94
2018-07-23T04:32:18.624Z,94.85
2018-07-23T04:33:24.970Z,94.70
2018-07-23T04:34:32.119Z,94.22
2018-07-23T04:35:39.287Z,93.86
2018-07-23T04:36:46.755Z,92.87
2018-07-23T04:37:53.661Z,92.91
2018-07-23T04:38:59.781Z,91.80
2018-07-23T04:40:06.289Z,91.77
2018-07-23T04:41:12.615Z,92.17
2018-07-23T04:42:19.323Z,91.82
2018-07-23T04:43:25.753Z,91.59
2018-07-23T04:44:32.168Z,91.05
2018-07-23T04:45:38.444Z,91.25
2018-07-23T04:46:44.878Z,90.44
2018-07-23T04:47:51.284Z,89.35
2018-07-23T04:48:57.620Z,89.97
2018-07-23T04:50:04.119Z,90.18
2018-07-23T04:51:11.182Z,89.35
2018-07-23T04:52:17.572Z,89.10
2018-07-23T04:53:23.965Z,89.11
2018-07-23T04:54:30.592Z,89.05
2018-07-23T04:55:36.637Z,89.11
2018-07-23T04:56:43.218Z,89.05
2018-07-23T04:57:49.696Z,87.46
2018-07-23T04:58:56.886Z,87.56
2018-07-23T05:00:03.297Z,87.68
2018-07-23T05:01:09.781Z,87.31
2018-07-23T05:02:16.101Z,87.37
2018-07-23T05:03:22.557Z,86.91
2018-07-23T05:04:29.065Z,85.95
2018-07-23T05:05:36.280Z,85.25
2018-07-23T05:06:43.378Z,84.88
2018-07-23T05:07:50.436Z,85.45
2018-07-23T05:08:56.904Z,85.38
2018-07-23T05:10:02.934Z,85.95
2018-07-23T05:11:09.973Z,85.89
2018-07-23T05:12:17.544Z,85.52
2018-07-23T05:13:24.137Z,85.41
2018-07-23T05:14:30.576Z,84.80
2018-07-23T05:15:37.056Z,84.91
2018-07-23T05:16:43.389Z,84.90
2018-07-23T05:17:49.796Z,84.87
2018-07-23T05:18:56.265Z,83.66
2018-07-23T05:20:02.619Z,82.56
2018-07-23T05:21:09.722Z,81.66
2018-07-23T05:22:16.849Z,81.75
2018-07-23T05:23:23.213Z,81.49
2018-07-23T05:24:29.573Z,81.22
2018-07-23T05:25:36.021Z,81.22
2018-07-23T05:26:42.456Z,80.89
2018-07-23T05:27:48.879Z,81.02
2018-07-23T05:28:55.300Z,81.50
2018-07-23T05:30:01.699Z,81.91
2018-07-23T05:31:07.424Z,81.23
2018-07-23T05:32:13.562Z,81.28
2018-07-23T05:33:19.951Z,81.76
2018-07-23T05:34:26.240Z,81.77
2018-07-23T05:35:32.651Z,81.28
2018-07-23T05:36:38.988Z,81.30
2018-07-23T05:37:45.506Z,81.45
2018-07-23T05:38:51.892Z,81.56
2018-07-23T05:39:58.301Z,80.88
2018-07-23T05:41:04.600Z,81.65
2018-07-23T05:42:11.012Z,82.01
2018-07-23T05:43:17.381Z,82.03
2018-07-23T05:44:23.774Z,81.24
2018-07-23T05:45:30.075Z,79.62
2018-07-23T05:46:36.571Z,80.84
2018-07-23T05:47:42.977Z,81.85
2018-07-23T05:48:49.321Z,80.94
2018-07-23T05:49:55.618Z,80.95
2018-07-23T05:51:01.941Z,81.64
2018-07-23T05:52:08.657Z,81.51
2018-07-23T05:53:15.076Z,81.76
2018-07-23T05:54:21.503Z,82.10
2018-07-23T05:55:27.809Z,81.79
2018-07-23T05:56:34.912Z,81.45
2018-07-23T05:57:41.413Z,80.23
2018-07-23T05:58:48.075Z,80.61
2018-07-23T05:59:54.690Z,80.79
2018-07-23T06:01:01.103Z,80.74
2018-07-23T06:02:07.057Z,80.03
2018-07-23T06:03:13.503Z,80.37
2018-07-23T06:04:19.598Z,80.41
2018-07-23T06:05:26.040Z,80.23
2018-07-23T06:06:32.471Z,80.33
2018-07-23T06:07:38.757Z,80.45
2018-07-23T06:08:45.188Z,79.85
2018-07-23T06:09:51.140Z,78.06
2018-07-23T06:10:57.137Z,77.28
2018-07-23T06:12:03.817Z,77.91
2018-07-23T06:13:11.314Z,78.87
2018-07-23T06:14:18.392Z,79.10
2018-07-23T06:15:24.768Z,77.33
2018-07-23T06:16:31.185Z,78.14
2018-07-23T06:17:37.677Z,77.08
2018-07-23T06:18:44.119Z,77.07
2018-07-23T06:19:50.474Z,77.23
2018-07-23T06:20:56.516Z,77.85
2018-07-23T06:22:02.552Z,76.98
2018-07-23T06:23:08.608Z,75.98
2018-07-23T06:24:14.341Z,76.10
2018-07-23T06:25:20.789Z,75.28
2018-07-23T06:26:27.136Z,73.53
2018-07-23T06:27:33.505Z,73.45
2018-07-23T06:28:40.606Z,73.63
2018-07-23T06:29:47.628Z,75.79
2018-07-23T06:30:53.959Z,75.19
2018-07-23T06:32:00.328Z,74.78
2018-07-23T06:33:06.692Z,73.36
2018-07-23T06:34:13.017Z,73.37
2018-07-23T06:35:19.397Z,73.46
2018-07-23T06:36:25.760Z,72.82
2018-07-23T06:37:32.057Z,74.16
2018-07-23T06:38:38.635Z,74.79
2018-07-23T06:39:45.556Z,75.32
2018-07-23T06:40:51.976Z,73.71
2018-07-23T06:41:58.877Z,72.49
2018-07-23T06:43:04.958Z,73.01
2018-07-23T06:44:11.042Z,74.74
2018-07-23T06:45:17.659Z,74.40
2018-07-23T06:46:24.061Z,73.59
2018-07-23T06:47:30.364Z,72.85
2018-07-23T06:48:36.678Z,73.77
2018-07-23T06:49:43.116Z,71.25
2018-07-23T06:50:49.399Z,71.47
2018-07-23T06:51:55.735Z,71.03
2018-07-23T06:53:02.117Z,72.30
2018-07-23T06:54:08.668Z,72.09
2018-07-23T06:55:14.926Z,72.29
2018-07-23T06:56:21.271Z,72.47
2018-07-23T06:57:27.648Z,72.55
2018-07-23T06:58:34.280Z,72.28
2018-07-23T06:59:40.549Z,72.77
2018-07-23T07:00:46.859Z,72.29
2018-07-23T07:01:53.237Z,72.42
2018-07-23T07:02:59.535Z,72.55
2018-07-23T07:04:05.350Z,71.68
2018-07-23T07:05:11.934Z,71.02
2018-07-23T07:06:18.203Z,71.23
2018-07-23T07:07:24.789Z,72.00
2018-07-23T07:08:31.117Z,71.26
2018-07-23T07:09:37.468Z,70.37
2018-07-23T07:10:43.728Z,70.91
2018-07-23T07:11:49.807Z,71.31
2018-07-23T07:12:56.472Z,71.62
2018-07-23T07:14:03.050Z,71.87
2018-07-23T07:15:09.316Z,71.74
2018-07-23T07:16:15.597Z,70.82
2018-07-23T07:17:21.956Z,70.11
2018-07-23T07:18:28.344Z,71.11
2018-07-23T07:19:34.678Z,70.54
2018-07-23T07:20:41.213Z,69.56
2018-07-23T07:21:48.183Z,70.85
2018-07-23T07:22:54.495Z,70.32
2018-07-23T07:24:00.832Z,69.66
2018-07-23T07:25:06.813Z,69.74
2018-07-23T07:26:13.224Z,69.41
2018-07-23T07:27:19.578Z,68.86
2018-07-23T07:28:25.858Z,68.07
2018-07-23T07:29:32.328Z,67.17
2018-07-23T07:30:38.781Z,67.19
2018-07-23T07:31:45.167Z,69.18
2018-07-23T07:32:51.511Z,67.87
2018-07-23T07:33:57.867Z,68.48
2018-07-23T07:35:03.807Z,66.46
2018-07-23T07:36:10.594Z,66.14
2018-07-23T07:37:16.862Z,66.55
2018-07-23T07:38:23.264Z,67.94
2018-07-23T07:39:29.839Z,67.12
2018-07-23T07:40:36.092Z,65.55
2018-07-23T07:41:42.514Z,65.39
2018-07-23T07:42:49.307Z,65.55
2018-07-23T07:43:55.752Z,67.52
2018-07-23T07:45:02.674Z,67.15
2018-07-23T07:46:09.094Z,66.86
2018-07-23T07:47:15.536Z,67.35
2018-07-23T07:48:21.826Z,66.15
2018-07-23T07:49:28.161Z,66.47
2018-07-23T07:50:34.488Z,65.51
2018-07-23T07:51:40.552Z,64.43
2018-07-23T07:52:46.976Z,64.25
2018-07-23T07:53:53.589Z,65.18
2018-07-23T07:55:00.846Z,64.92
2018-07-23T07:56:06.864Z,65.33
2018-07-23T07:57:13.171Z,65.84
2018-07-23T07:58:19.594Z,65.71
2018-07-23T07:59:25.909Z,65.00
2018-07-23T08:00:32.217Z,64.36
2018-07-23T08:01:38.491Z,65.26
2018-07-23T08:02:44.805Z,65.64
2018-07-23T08:03:51.120Z,66.53
2018-07-23T08:04:57.591Z,66.98
2018-07-23T08:06:03.596Z,68.74
2018-07-23T08:07:09.659Z,66.16
2018-07-23T08:08:15.966Z,66.39
2018-07-23T08:09:22.374Z,66.89
2018-07-23T08:10:28.701Z,67.13
2018-07-23T08:11:34.992Z,66.33
2018-07-23T08:12:42.025Z,66.65
2018-07-23T08:13:48.259Z,66.48
2018-07-23T08:14:54.668Z,66.43
2018-07-23T08:16:01.138Z,66.76
2018-07-23T08:17:07.172Z,66.00
2018-07-23T08:18:13.528Z,65.86
2018-07-23T08:19:19.552Z,67.36
2018-07-23T08:20:26.089Z,66.27
2018-07-23T08:21:32.406Z,65.73
2018-07-23T08:22:38.399Z,64.76
2018-07-23T08:23:44.866Z,63.89
2018-07-23T08:24:51.169Z,63.90
2018-07-23T08:25:57.541Z,63.83
2018-07-23T08:27:03.553Z,63.29
2018-07-23T08:28:10.514Z,63.82
2018-07-23T08:29:17.587Z,62.86
2018-07-23T08:30:23.756Z,62.83
2018-07-23T08:31:30.068Z,64.55
2018-07-23T08:32:36.674Z,64.54
2018-07-23T08:33:42.973Z,64.69
2018-07-23T08:34:48.967Z,63.50
2018-07-23T08:35:55.002Z,62.07
2018-07-23T08:37:01.892Z,62.97
2018-07-23T08:38:08.327Z,61.86
2018-07-23T08:39:14.377Z,62.17
2018-07-23T08:40:20.776Z,61.61
2018-07-23T08:41:27.099Z,61.84
2018-07-23T08:42:32.681Z,61.36
2018-07-23T08:43:39.064Z,61.90
2018-07-23T08:44:45.732Z,60.98
2018-07-23T08:45:51.684Z,60.51
2018-07-23T08:46:58.169Z,60.38
2018-07-23T08:48:04.062Z,60.11
2018-07-23T08:49:10.318Z,60.82
2018-07-23T08:50:16.299Z,61.43
2018-07-23T08:51:22.787Z,61.35
2018-07-23T08:52:29.360Z,60.15
2018-07-23T08:53:36.311Z,60.04
2018-07-23T08:54:42.760Z,60.78
2018-07-23T08:55:49.037Z,62.22
2018-07-23T08:56:55.317Z,61.47
2018-07-23T08:58:01.760Z,62.26
2018-07-23T08:59:08.093Z,62.37
2018-07-23T09:00:14.485Z,60.42
2018-07-23T09:01:20.771Z,60.84
2018-07-23T09:02:26.853Z,60.19
2018-07-23T09:03:33.397Z,60.48
2018-07-23T09:04:39.961Z,61.45
2018-07-23T09:05:47.129Z,59.89
2018-07-23T09:06:53.573Z,61.34
2018-07-23T09:07:59.882Z,60.45
2018-07-23T09:09:05.606Z,61.36
2018-07-23T09:10:11.717Z,60.75
2018-07-23T09:11:18.092Z,61.91
2018-07-23T09:12:24.556Z,61.18
2018-07-23T09:13:30.844Z,61.75
2018-07-23T09:14:37.134Z,60.01
2018-07-23T09:15:43.473Z,60.29
2018-07-23T09:16:50.004Z,61.20
2018-07-23T09:17:56.379Z,60.19
2018-07-23T09:19:02.688Z,60.18
2018-07-23T09:20:10.533Z,60.50
2018-07-23T09:21:17.309Z,59.13
2018-07-23T09:22:23.575Z,59.66
2018-07-23T09:23:29.883Z,58.03
2018-07-23T09:24:36.209Z,58.27
2018-07-23T09:25:42.368Z,58.08
2018-07-23T09:26:48.736Z,58.23
2018-07-23T09:27:55.027Z,58.29
2018-07-23T09:29:01.387Z,58.30
2018-07-23T09:30:07.468Z,58.94
2018-07-23T09:31:13.592Z,57.83
2018-07-23T09:32:19.688Z,59.85
2018-07-23T09:33:25.781Z,57.48
2018-07-23T09:34:32.031Z,58.00
2018-07-23T09:35:38.344Z,56.56
2018-07-23T09:36:45.361Z,54.93
2018-07-23T09:37:51.633Z,55.24
2018-07-23T09:38:58.043Z,54.01
2018-07-23T09:40:03.882Z,54.54
2018-07-23T09:41:10.196Z,54.43
2018-07-23T09:42:16.105Z,53.61
2018-07-23T09:43:22.488Z,55.47
2018-07-23T09:44:28.795Z,55.44
2018-07-23T09:45:35.105Z,55.91
2018-07-23T09:46:41.366Z,55.47
2018-07-23T09:47:47.718Z,56.22
2018-07-23T09:48:54.064Z,55.83
2018-07-23T09:50:00.384Z,55.73
2018-07-23T09:51:06.328Z,55.89
2018-07-23T09:52:12.776Z,55.72
2018-07-23T09:53:18.796Z,53.91
2018-07-23T09:54:24.844Z,53.49
2018-07-23T09:55:31.196Z,53.87
2018-07-23T09:56:37.932Z,54.87
2018-07-23T09:57:44.328Z,54.99
2018-07-23T09:58:50.384Z,54.36
2018-07-23T09:59:56.772Z,52.74
2018-07-23T10:01:02.578Z,53.26
2018-07-23T10:02:09.008Z,54.53
2018-07-23T10:03:15.599Z,55.54
2018-07-23T10:04:22.116Z,55.47
2018-07-23T10:05:28.152Z,54.72
2018-07-23T10:06:34.451Z,53.44
2018-07-23T10:07:40.447Z,52.76
2018-07-23T10:08:46.790Z,51.96
2018-07-23T10:09:52.801Z,52.69
2018-07-23T10:10:58.470Z,54.04
2018-07-23T10:12:05.012Z,53.58
2018-07-23T10:13:12.067Z,53.24
2018-07-23T10:14:18.256Z,53.39
2018-07-23T10:15:24.106Z,53.79
2018-07-23T10:16:30.152Z,51.89
2018-07-23T10:17:36.157Z,52.74
2018-07-23T10:18:42.159Z,52.74
2018-07-23T10:19:48.424Z,52.01
2018-07-23T10:20:54.461Z,53.24
2018-07-23T10:22:00.481Z,53.39
2018-07-23T10:23:06.757Z,54.56
2018-07-23T10:24:12.885Z,51.88
2018-07-23T10:25:19.179Z,51.84
2018-07-23T10:26:25.224Z,51.08
2018-07-23T10:27:31.196Z,50.09
2018-07-23T10:28:37.214Z,51.42
2018-07-23T10:29:43.231Z,51.01
2018-07-23T10:30:49.280Z,51.44
2018-07-23T10:31:55.363Z,52.06
2018-07-23T10:33:01.425Z,51.93
2018-07-23T10:34:07.432Z,51.25
2018-07-23T10:35:13.245Z,51.96
2018-07-23T10:36:19.978Z,53.03
2018-07-23T10:37:25.977Z,53.12
2018-07-23T10:38:31.964Z,53.29
2018-07-23T10:39:38.067Z,51.55
2018-07-23T10:40:44.169Z,53.03
2018-07-23T10:41:50.208Z,50.63
2018-07-23T10:42:56.182Z,50.21
2018-07-23T10:44:02.196Z,50.31
2018-07-23T10:45:08.222Z,50.66
2018-07-23T10:46:14.297Z,49.87
2018-07-23T10:47:20.335Z,48.84
2018-07-23T10:48:27.602Z,49.23
2018-07-23T10:49:34.388Z,49.52
2018-07-23T10:50:40.497Z,50.12
2018-07-23T10:51:47.167Z,51.76
2018-07-23T10:52:53.914Z,50.71
2018-07-23T10:54:00.028Z,48.80
2018-07-23T10:55:06.030Z,50.91
2018-07-23T10:56:12.041Z,50.20
2018-07-23T10:57:18.069Z,49.83
2018-07-23T10:58:24.052Z,50.79
2018-07-23T10:59:30.094Z,48.75
2018-07-23T11:00:36.762Z,49.18
2018-07-23T11:01:42.908Z,48.47
2018-07-23T11:02:48.893Z,49.73
2018-07-23T11:03:54.912Z,49.99
2018-07-23T11:05:00.921Z,52.88
2018-07-23T11:06:06.912Z,49.02
2018-07-23T11:07:12.961Z,47.83
2018-07-23T11:08:19.041Z,48.11
2018-07-23T11:09:25.048Z,47.76
2018-07-23T11:10:31.018Z,49.11
2018-07-23T11:11:36.908Z,48.95
2018-07-23T11:12:43.719Z,48.94
2018-07-23T11:13:49.843Z,49.05
2018-07-23T11:14:55.543Z,50.25
2018-07-23T11:16:01.946Z,49.62
2018-07-23T11:17:08.001Z,50.17
2018-07-23T11:18:14.012Z,50.40
2018-07-23T11:19:20.203Z,51.07
2018-07-23T11:20:26.480Z,49.77
2018-07-23T11:21:32.514Z,49.17
2018-07-23T11:22:38.209Z,48.95
2018-07-23T11:23:44.328Z,49.77
2018-07-23T11:24:51.380Z,49.54
2018-07-23T11:25:59.360Z,49.60
2018-07-23T11:27:06.139Z,47.69
2018-07-23T11:28:12.233Z,47.27
2018-07-23T11:29:18.363Z,48.02
2018-07-23T11:30:24.255Z,46.84
2018-07-23T11:31:30.276Z,49.29
2018-07-23T11:32:36.382Z,48.35
2018-07-23T11:33:42.359Z,46.91
2018-07-23T11:34:48.480Z,47.62
2018-07-23T11:35:54.576Z,45.02
2018-07-23T11:37:00.618Z,45.07
2018-07-23T11:38:06.700Z,46.24
2018-07-23T11:39:12.681Z,45.04
2018-07-23T11:40:19.797Z,45.41
2018-07-23T11:41:26.098Z,46.59
2018-07-23T11:42:32.165Z,45.64
2018-07-23T11:43:38.223Z,44.71
2018-07-23T11:44:44.344Z,45.11
2018-07-23T11:45:50.353Z,45.43
2018-07-23T11:46:56.346Z,44.22
2018-07-23T11:48:02.590Z,45.09
2018-07-23T11:49:08.560Z,45.56
2018-07-23T11:50:15.361Z,44.44
2018-07-23T11:51:21.546Z,45.17
2018-07-23T11:52:27.642Z,43.97
2018-07-23T11:53:33.725Z,43.85
2018-07-23T11:54:39.931Z,43.96
2018-07-23T11:55:46.533Z,44.66
2018-07-23T11:56:52.667Z,42.96
2018-07-23T11:57:58.683Z,42.22
2018-07-23T11:59:04.697Z,43.78
2018-07-23T12:00:10.696Z,43.92
2018-07-23T12:01:17.912Z,44.44
2018-07-23T12:02:23.937Z,44.71
2018-07-23T12:03:29.917Z,44.03
2018-07-23T12:04:36.133Z,42.60
2018-07-23T12:05:42.337Z,41.66
2018-07-23T12:06:48.431Z,43.40
2018-07-23T12:07:54.472Z,43.32
2018-07-23T12:09:00.544Z,43.21
2018-07-23T12:10:06.316Z,42.10
2018-07-23T12:11:12.448Z,41.71
2018-07-23T12:12:18.496Z,42.46
2018-07-23T12:13:24.502Z,42.00
2018-07-23T12:14:30.463Z,42.82
2018-07-23T12:15:36.484Z,41.63
2018-07-23T12:16:43.065Z,42.30
2018-07-23T12:17:49.348Z,41.66
2018-07-23T12:18:55.343Z,41.37
2018-07-23T12:20:01.454Z,41.78
2018-07-23T12:21:07.371Z,41.98
2018-07-23T12:22:13.321Z,43.93
2018-07-23T12:23:19.367Z,45.37
2018-07-23T12:24:25.348Z,43.73
2018-07-23T12:25:31.364Z,43.77
2018-07-23T12:26:37.312Z,42.63
2018-07-23T12:27:43.438Z,43.26
2018-07-23T12:28:49.524Z,42.42
2018-07-23T12:29:55.029Z,42.64
2018-07-23T12:31:01.731Z,43.95
2018-07-23T12:32:07.956Z,44.12
2018-07-23T12:33:14.014Z,44.53
2018-07-23T12:34:20.000Z,44.65
2018-07-23T12:35:26.029Z,44.14
2018-07-23T12:36:32.002Z,44.61
2018-07-23T12:37:39.005Z,45.08
2018-07-23T12:38:45.015Z,44.85
2018-07-23T12:39:51.076Z,45.76
2018-07-23T12:40:57.255Z,45.41
2018-07-23T12:42:03.392Z,45.15
2018-07-23T12:43:09.389Z,45.46
2018-07-23T12:44:15.196Z,45.47
2018-07-23T12:45:21.135Z,45.23
2018-07-23T12:46:27.310Z,45.84
2018-07-23T12:47:33.389Z,45.39
2018-07-23T12:48:39.422Z,45.14
2018-07-23T12:49:45.510Z,44.97
2018-07-23T12:50:51.642Z,45.06
2018-07-23T12:51:57.624Z,45.12
2018-07-23T12:53:04.568Z,44.52
2018-07-23T12:54:10.896Z,44.64
2018-07-23T12:55:16.952Z,45.36
2018-07-23T12:56:22.970Z,44.64
2018-07-23T12:57:29.000Z,43.99
2018-07-23T12:58:35.121Z,44.77
2018-07-23T12:59:41.268Z,44.24
2018-07-23T13:00:47.704Z,44.83
2018-07-23T13:01:53.853Z,45.67
2018-07-23T13:02:59.398Z,44.80
2018-07-23T13:04:05.539Z,45.20
2018-07-23T13:05:11.517Z,45.57
2018-07-23T13:06:17.650Z,45.59
2018-07-23T13:07:23.661Z,46.27
2018-07-23T13:08:29.846Z,46.50
2018-07-23T13:09:35.837Z,46.33
2018-07-23T13:10:41.907Z,45.66
2018-07-23T13:11:47.959Z,44.96
2018-07-23T13:12:53.985Z,44.32
2018-07-23T13:14:01.240Z,43.83
2018-07-23T13:15:06.939Z,44.43
2018-07-23T13:16:13.073Z,44.15
2018-07-23T13:17:19.114Z,46.92
2018-07-23T13:18:24.896Z,45.71
2018-07-23T13:19:31.138Z,45.25
2018-07-23T13:20:37.134Z,45.55
2018-07-23T13:21:42.855Z,45.51
2018-07-23T13:22:48.920Z,46.99
2018-07-23T13:23:54.612Z,44.82
2018-07-23T13:25:00.736Z,45.35
2018-07-23T13:26:06.514Z,44.16
2018-07-23T13:27:12.235Z,43.90
2018-07-23T13:28:18.268Z,44.10
2018-07-23T13:29:24.596Z,45.22
2018-07-23T13:30:31.208Z,44.59
2018-07-23T13:31:37.301Z,45.21
2018-07-23T13:32:43.421Z,43.73
2018-07-23T13:33:49.625Z,44.61
2018-07-23T13:34:55.688Z,44.53
2018-07-23T13:36:01.646Z,44.07
2018-07-23T13:37:07.749Z,44.73
2018-07-23T13:38:13.997Z,44.55
2018-07-23T13:39:20.258Z,44.36
2018-07-23T13:40:26.263Z,44.17
2018-07-23T13:41:32.237Z,42.61
2018-07-23T13:42:38.344Z,42.47
2018-07-23T13:43:44.497Z,42.97
2018-07-23T13:44:50.495Z,43.96
2018-07-23T13:45:56.467Z,43.77
2018-07-23T13:47:02.473Z,42.85
2018-07-23T13:48:08.572Z,42.69
2018-07-23T13:49:14.614Z,43.68
2018-07-23T13:50:21.749Z,44.57
2018-07-23T13:51:27.937Z,44.58
2018-07-23T13:52:34.248Z,43.15
2018-07-23T13:53:40.003Z,42.09
2018-07-23T13:54:46.139Z,42.77
2018-07-23T13:55:51.787Z,42.72
2018-07-23T13:56:57.546Z,42.69
2018-07-23T13:58:04.234Z,43.10
2018-07-23T13:59:10.370Z,43.01
2018-07-23T14:00:16.404Z,41.63
2018-07-23T14:01:22.444Z,41.87
2018-07-23T14:02:28.776Z,40.89
2018-07-23T14:03:34.849Z,41.73
2018-07-23T14:04:40.908Z,41.34
2018-07-23T14:05:47.246Z,41.63
2018-07-23T14:06:53.486Z,41.74
2018-07-23T14:07:59.419Z,40.66
2018-07-23T14:09:04.806Z,39.56
2018-07-23T14:10:11.153Z,39.00
2018-07-23T14:11:17.236Z,39.69
2018-07-23T14:12:23.256Z,38.60
2018-07-23T14:13:29.250Z,39.86
2018-07-23T14:14:35.487Z,39.04
2018-07-23T14:15:41.219Z,39.54